sensor_id;sensor_type;location;lat;lon;timestamp;pressure;altitude;pressure_sealevel;temperature;humidity
48053;BME280;33824;51.600;5.718;2023-04-22T00:02:04;100680.53;;;8.96;87.78
48053;BME280;33824;51.600;5.718;2023-04-22T00:04:30;100666.72;;;8.92;87.50
48053;BME280;33824;51.600;5.718;2023-04-22T00:06:56;100669.72;;;8.89;87.93
48053;BME280;33824;51.600;5.718;2023-04-22T00:09:22;100675.06;;;8.89;88.14
48053;BME280;33824;51.600;5.718;2023-04-22T00:11:48;100662.75;;;8.88;88.22
48053;BME280;33824;51.600;5.718;2023-04-22T00:14:13;100669.06;;;8.87;88.23
48053;BME280;33824;51.600;5.718;2023-04-22T00:16:39;100667.41;;;8.86;88.44
48053;BME280;33824;51.600;5.718;2023-04-22T00:19:04;100671.22;;;8.84;88.24
48053;BME280;33824;51.600;5.718;2023-04-22T00:21:30;100661.91;;;8.80;89.37
48053;BME280;33824;51.600;5.718;2023-04-22T00:23:56;100663.72;;;8.79;89.50
48053;BME280;33824;51.600;5.718;2023-04-22T00:26:22;100662.75;;;8.80;90.11
48053;BME280;33824;51.600;5.718;2023-04-22T00:28:48;100657.78;;;8.77;89.98
48053;BME280;33824;51.600;5.718;2023-04-22T00:31:17;100657.91;;;8.76;90.54
48053;BME280;33824;51.600;5.718;2023-04-22T00:33:42;100661.25;;;8.78;89.97
48053;BME280;33824;51.600;5.718;2023-04-22T00:36:08;100657.78;;;8.77;90.04
48053;BME280;33824;51.600;5.718;2023-04-22T00:38:33;100656.09;;;8.76;89.91
48053;BME280;33824;51.600;5.718;2023-04-22T00:40:59;100652.59;;;8.76;90.23
48053;BME280;33824;51.600;5.718;2023-04-22T00:43:25;100660.09;;;8.72;90.37
48053;BME280;33824;51.600;5.718;2023-04-22T00:45:50;100648.97;;;8.68;89.82
48053;BME280;33824;51.600;5.718;2023-04-22T00:48:16;100651.31;;;8.63;89.56
48053;BME280;33824;51.600;5.718;2023-04-22T00:50:42;100656.28;;;8.58;89.79
48053;BME280;33824;51.600;5.718;2023-04-22T00:53:07;100652.13;;;8.56;89.97
48053;BME280;33824;51.600;5.718;2023-04-22T00:55:33;100648.13;;;8.52;89.58
48053;BME280;33824;51.600;5.718;2023-04-22T00:57:59;100648.28;;;8.50;90.31
48053;BME280;33824;51.600;5.718;2023-04-22T01:00:27;100652.63;;;8.51;90.17
48053;BME280;33824;51.600;5.718;2023-04-22T01:02:53;100646.13;;;8.54;90.19
48053;BME280;33824;51.600;5.718;2023-04-22T01:05:20;100648.63;;;8.55;90.05
48053;BME280;33824;51.600;5.718;2023-04-22T01:07:46;100651.13;;;8.57;90.33
48053;BME280;33824;51.600;5.718;2023-04-22T01:10:12;100660.59;;;8.59;90.53
48053;BME280;33824;51.600;5.718;2023-04-22T01:12:37;100654.78;;;8.56;90.41
48053;BME280;33824;51.600;5.718;2023-04-22T01:15:03;100649.28;;;8.57;90.38
48053;BME280;33824;51.600;5.718;2023-04-22T01:17:30;100651.94;;;8.57;90.77
48053;BME280;33824;51.600;5.718;2023-04-22T01:19:58;100645.66;;;8.58;90.65
48053;BME280;33824;51.600;5.718;2023-04-22T01:22:25;100651.78;;;8.59;91.11
48053;BME280;33824;51.600;5.718;2023-04-22T01:24:56;100647.13;;;8.61;90.91
48053;BME280;33824;51.600;5.718;2023-04-22T01:27:22;100643.97;;;8.65;91.18
48053;BME280;33824;51.600;5.718;2023-04-22T01:29:48;100645.97;;;8.72;91.11
48053;BME280;33824;51.600;5.718;2023-04-22T01:32:14;100636.34;;;8.79;91.34
48053;BME280;33824;51.600;5.718;2023-04-22T01:34:39;100636.31;;;8.87;91.65
48053;BME280;33824;51.600;5.718;2023-04-22T01:37:06;100637.63;;;8.91;91.41
48053;BME280;33824;51.600;5.718;2023-04-22T01:39:31;100636.50;;;8.93;91.67
48053;BME280;33824;51.600;5.718;2023-04-22T01:41:57;100636.16;;;8.96;91.56
48053;BME280;33824;51.600;5.718;2023-04-22T01:44:24;100623.19;;;9.01;91.94
48053;BME280;33824;51.600;5.718;2023-04-22T01:46:50;100622.84;;;9.04;91.85
48053;BME280;33824;51.600;5.718;2023-04-22T01:49:16;100629.31;;;9.10;91.55
48053;BME280;33824;51.600;5.718;2023-04-22T01:51:41;100624.47;;;9.13;91.64
48053;BME280;33824;51.600;5.718;2023-04-22T01:54:08;100619.63;;;9.17;91.37
48053;BME280;33824;51.600;5.718;2023-04-22T01:56:34;100627.09;;;9.22;91.59
48053;BME280;33824;51.600;5.718;2023-04-22T01:59:00;100624.09;;;9.25;91.39
48053;BME280;33824;51.600;5.718;2023-04-22T02:01:26;100623.09;;;9.26;91.58
48053;BME280;33824;51.600;5.718;2023-04-22T02:03:51;100619.78;;;9.32;91.75
48053;BME280;33824;51.600;5.718;2023-04-22T02:06:17;100626.59;;;9.34;91.42
48053;BME280;33824;51.600;5.718;2023-04-22T02:08:42;100621.59;;;9.39;91.57
48053;BME280;33824;51.600;5.718;2023-04-22T02:11:08;100614.41;;;9.40;91.24
48053;BME280;33824;51.600;5.718;2023-04-22T02:13:38;100617.06;;;9.40;91.18
48053;BME280;33824;51.600;5.718;2023-04-22T02:16:04;100621.72;;;9.46;91.52
48053;BME280;33824;51.600;5.718;2023-04-22T02:18:30;100621.53;;;9.47;91.26
48053;BME280;33824;51.600;5.718;2023-04-22T02:20:56;100617.03;;;9.48;91.32
48053;BME280;33824;51.600;5.718;2023-04-22T02:23:22;100616.41;;;9.46;91.52
48053;BME280;33824;51.600;5.718;2023-04-22T02:25:48;100623.56;;;9.45;91.76
48053;BME280;33824;51.600;5.718;2023-04-22T02:28:15;100617.41;;;9.45;91.89
48053;BME280;33824;51.600;5.718;2023-04-22T02:30:41;100619.06;;;9.46;91.79
48053;BME280;33824;51.600;5.718;2023-04-22T02:33:07;100613.75;;;9.46;91.89
48053;BME280;33824;51.600;5.718;2023-04-22T02:35:32;100609.25;;;9.46;92.19
48053;BME280;33824;51.600;5.718;2023-04-22T02:37:58;100609.06;;;9.48;92.12
48053;BME280;33824;51.600;5.718;2023-04-22T02:40:25;100606.06;;;9.51;92.47
48053;BME280;33824;51.600;5.718;2023-04-22T02:42:51;100597.91;;;9.52;92.51
48053;BME280;33824;51.600;5.718;2023-04-22T02:45:16;100595.06;;;9.54;92.56
48053;BME280;33824;51.600;5.718;2023-04-22T02:47:42;100595.56;;;9.57;92.74
48053;BME280;33824;51.600;5.718;2023-04-22T02:50:07;100597.22;;;9.58;92.47
48053;BME280;33824;51.600;5.718;2023-04-22T02:52:33;100588.06;;;9.61;92.63
48053;BME280;33824;51.600;5.718;2023-04-22T02:54:59;100589.72;;;9.62;92.42
48053;BME280;33824;51.600;5.718;2023-04-22T02:57:25;100589.38;;;9.65;92.60
48053;BME280;33824;51.600;5.718;2023-04-22T02:59:51;100591.69;;;9.68;92.60
48053;BME280;33824;51.600;5.718;2023-04-22T03:02:17;100588.19;;;9.68;92.55
48053;BME280;33824;51.600;5.718;2023-04-22T03:04:43;100587.34;;;9.67;92.36
48053;BME280;33824;51.600;5.718;2023-04-22T03:07:08;100586.34;;;9.68;92.64
48053;BME280;33824;51.600;5.718;2023-04-22T03:09:34;100588.19;;;9.68;93.01
48053;BME280;33824;51.600;5.718;2023-04-22T03:12:00;100584.53;;;9.69;93.20
48053;BME280;33824;51.600;5.718;2023-04-22T03:14:26;100580.88;;;9.70;92.95
48053;BME280;33824;51.600;5.718;2023-04-22T03:16:52;100580.88;;;9.70;93.10
48053;BME280;33824;51.600;5.718;2023-04-22T03:19:17;100584.16;;;9.72;93.62
48053;BME280;33824;51.600;5.718;2023-04-22T03:21:43;100578.69;;;9.73;93.68
48053;BME280;33824;51.600;5.718;2023-04-22T03:24:08;100574.00;;;9.75;93.72
48053;BME280;33824;51.600;5.718;2023-04-22T03:26:34;100567.69;;;9.76;94.01
48053;BME280;33824;51.600;5.718;2023-04-22T03:29:00;100567.50;;;9.78;94.04
48053;BME280;33824;51.600;5.718;2023-04-22T03:31:25;100571.81;;;9.79;93.53
48053;BME280;33824;51.600;5.718;2023-04-22T03:33:51;100570.34;;;9.76;93.46
48053;BME280;33824;51.600;5.718;2023-04-22T03:36:16;100560.88;;;9.74;93.44
48053;BME280;33824;51.600;5.718;2023-04-22T03:38:42;100554.72;;;9.73;93.52
48053;BME280;33824;51.600;5.718;2023-04-22T03:41:09;100556.03;;;9.77;93.67
48053;BME280;33824;51.600;5.718;2023-04-22T03:43:34;100552.34;;;9.78;93.86
48053;BME280;33824;51.600;5.718;2023-04-22T03:46:00;100546.84;;;9.80;93.67
48053;BME280;33824;51.600;5.718;2023-04-22T03:48:25;100545.66;;;9.82;93.69
48053;BME280;33824;51.600;5.718;2023-04-22T03:50:53;100545.84;;;9.81;93.91
48053;BME280;33824;51.600;5.718;2023-04-22T03:53:18;100537.03;;;9.80;93.58
48053;BME280;33824;51.600;5.718;2023-04-22T03:55:44;100540.53;;;9.81;93.51
48053;BME280;33824;51.600;5.718;2023-04-22T03:58:09;100538.50;;;9.83;93.48
48053;BME280;33824;51.600;5.718;2023-04-22T04:00:35;100545.50;;;9.84;93.52
48053;BME280;33824;51.600;5.718;2023-04-22T04:03:00;100542.66;;;9.85;93.36
48053;BME280;33824;51.600;5.718;2023-04-22T04:05:26;100540.81;;;9.86;93.49
48053;BME280;33824;51.600;5.718;2023-04-22T04:07:51;100533.66;;;9.86;93.70
48053;BME280;33824;51.600;5.718;2023-04-22T04:10:17;100534.13;;;9.90;93.50
48053;BME280;33824;51.600;5.718;2023-04-22T04:12:42;100532.13;;;9.92;93.33
48053;BME280;33824;51.600;5.718;2023-04-22T04:15:08;100530.78;;;9.96;93.34
48053;BME280;33824;51.600;5.718;2023-04-22T04:17:33;100537.72;;;9.97;93.53
48053;BME280;33824;51.600;5.718;2023-04-22T04:19:59;100534.91;;;9.98;93.21
48053;BME280;33824;51.600;5.718;2023-04-22T04:22:24;100532.13;;;9.92;92.92
48053;BME280;33824;51.600;5.718;2023-04-22T04:24:52;100518.34;;;9.88;92.91
48053;BME280;33824;51.600;5.718;2023-04-22T04:27:21;100528.31;;;9.86;92.90
48053;BME280;33824;51.600;5.718;2023-04-22T04:29:48;100525.19;;;9.83;92.92
48053;BME280;33824;51.600;5.718;2023-04-22T04:32:14;100527.25;;;9.73;92.73
48053;BME280;33824;51.600;5.718;2023-04-22T04:34:40;100523.47;;;9.67;93.10
48053;BME280;33824;51.600;5.718;2023-04-22T04:37:06;100526.47;;;9.64;93.54
48053;BME280;33824;51.600;5.718;2023-04-22T04:39:32;100522.34;;;9.61;93.33
48053;BME280;33824;51.600;5.718;2023-04-22T04:41:58;100530.50;;;9.60;93.67
48053;BME280;33824;51.600;5.718;2023-04-22T04:44:25;100525.16;;;9.60;94.20
48053;BME280;33824;51.600;5.718;2023-04-22T04:46:56;100530.31;;;9.61;94.36
48053;BME280;33824;51.600;5.718;2023-04-22T04:49:22;100524.16;;;9.61;94.43
48053;BME280;33824;51.600;5.718;2023-04-22T04:51:48;100523.81;;;9.64;94.52
48053;BME280;33824;51.600;5.718;2023-04-22T04:54:14;100526.78;;;9.69;94.30
48053;BME280;33824;51.600;5.718;2023-04-22T04:56:40;100522.78;;;9.73;94.39
48053;BME280;33824;51.600;5.718;2023-04-22T04:59:06;100527.22;;;9.81;94.20
48053;BME280;33824;51.600;5.718;2023-04-22T05:01:31;100524.19;;;9.84;94.17
48053;BME280;33824;51.600;5.718;2023-04-22T05:03:57;100524.66;;;9.87;94.08
48053;BME280;33824;51.600;5.718;2023-04-22T05:06:22;100522.47;;;9.91;94.22
48053;BME280;33824;51.600;5.718;2023-04-22T05:08:48;100525.44;;;9.96;94.08
48053;BME280;33824;51.600;5.718;2023-04-22T05:11:13;100528.38;;;10.01;93.99
48053;BME280;33824;51.600;5.718;2023-04-22T05:13:39;100530.34;;;10.07;93.92
48053;BME280;33824;51.600;5.718;2023-04-22T05:16:05;100540.28;;;10.13;93.99
48053;BME280;33824;51.600;5.718;2023-04-22T05:18:30;100544.75;;;10.21;94.00
48053;BME280;33824;51.600;5.718;2023-04-22T05:20:56;100535.22;;;10.26;93.89
48053;BME280;33824;51.600;5.718;2023-04-22T05:23:25;100531.00;;;10.32;93.68
48053;BME280;33824;51.600;5.718;2023-04-22T05:25:50;100537.47;;;10.37;93.72
48053;BME280;33824;51.600;5.718;2023-04-22T05:28:16;100537.09;;;10.40;93.52
48053;BME280;33824;51.600;5.718;2023-04-22T05:30:41;100540.69;;;10.47;93.51
48053;BME280;33824;51.600;5.718;2023-04-22T05:33:07;100535.72;;;10.44;93.10
48053;BME280;33824;51.600;5.718;2023-04-22T05:35:33;100533.78;;;10.38;93.88
48053;BME280;33824;51.600;5.718;2023-04-22T05:38:00;100535.16;;;10.34;93.47
48053;BME280;33824;51.600;5.718;2023-04-22T05:40:27;100522.66;;;10.35;93.54
48053;BME280;33824;51.600;5.718;2023-04-22T05:42:53;100522.66;;;10.35;93.28
48053;BME280;33824;51.600;5.718;2023-04-22T05:45:18;100525.34;;;10.35;93.17
48053;BME280;33824;51.600;5.718;2023-04-22T05:47:44;100521.09;;;10.40;93.53
48053;BME280;33824;51.600;5.718;2023-04-22T05:50:10;100528.13;;;10.56;93.98
48053;BME280;33824;51.600;5.718;2023-04-22T05:52:35;100527.97;;;10.72;93.99
48053;BME280;33824;51.600;5.718;2023-04-22T05:55:01;100537.44;;;10.89;93.78
48053;BME280;33824;51.600;5.718;2023-04-22T05:57:26;100532.47;;;11.01;93.66
48053;BME280;33824;51.600;5.718;2023-04-22T05:59:52;100536.50;;;11.12;93.17
48053;BME280;33824;51.600;5.718;2023-04-22T06:02:17;100532.56;;;11.22;93.14
48053;BME280;33824;51.600;5.718;2023-04-22T06:04:42;100528.78;;;11.31;92.51
48053;BME280;33824;51.600;5.718;2023-04-22T06:07:08;100529.06;;;11.36;92.50
48053;BME280;33824;51.600;5.718;2023-04-22T06:09:34;100527.22;;;11.37;92.44
48053;BME280;33824;51.600;5.718;2023-04-22T06:11:59;100524.16;;;11.40;92.60
48053;BME280;33824;51.600;5.718;2023-04-22T06:14:26;100514.13;;;11.42;92.76
48053;BME280;33824;51.600;5.718;2023-04-22T06:16:52;100522.97;;;11.42;92.58
48053;BME280;33824;51.600;5.718;2023-04-22T06:19:18;100519.16;;;11.51;93.25
48053;BME280;33824;51.600;5.718;2023-04-22T06:21:44;100518.84;;;11.61;93.18
48053;BME280;33824;51.600;5.718;2023-04-22T06:24:09;100513.72;;;11.74;93.23
48053;BME280;33824;51.600;5.718;2023-04-22T06:26:36;100512.25;;;11.93;92.99
48053;BME280;33824;51.600;5.718;2023-04-22T06:29:02;100509.78;;;12.13;92.85
48053;BME280;33824;51.600;5.718;2023-04-22T06:31:30;100508.84;;;12.27;92.46
48053;BME280;33824;51.600;5.718;2023-04-22T06:33:56;100507.50;;;12.37;92.68
48053;BME280;33824;51.600;5.718;2023-04-22T06:36:23;100492.59;;;12.49;92.50
48053;BME280;33824;51.600;5.718;2023-04-22T06:38:48;100501.09;;;12.60;92.15
48053;BME280;33824;51.600;5.718;2023-04-22T06:41:14;100493.16;;;12.73;92.03
48053;BME280;33824;51.600;5.718;2023-04-22T06:43:39;100501.47;;;12.84;91.79
48053;BME280;33824;51.600;5.718;2023-04-22T06:46:05;100505.44;;;13.02;91.78
48053;BME280;33824;51.600;5.718;2023-04-22T06:48:30;100501.22;;;13.14;91.93
48053;BME280;33824;51.600;5.718;2023-04-22T06:50:56;100489.94;;;13.25;92.19
48053;BME280;33824;51.600;5.718;2023-04-22T06:53:21;100495.16;;;13.39;91.43
48053;BME280;33824;51.600;5.718;2023-04-22T06:55:47;100494.81;;;13.56;91.56
48053;BME280;33824;51.600;5.718;2023-04-22T06:58:12;100484.34;;;13.74;91.24
48053;BME280;33824;51.600;5.718;2023-04-22T07:00:38;100480.44;;;13.89;91.26
48053;BME280;33824;51.600;5.718;2023-04-22T07:03:04;100480.28;;;14.11;90.97
48053;BME280;33824;51.600;5.718;2023-04-22T07:05:29;100476.97;;;14.28;90.74
48053;BME280;33824;51.600;5.718;2023-04-22T07:07:56;100477.22;;;14.40;90.12
48053;BME280;33824;51.600;5.718;2023-04-22T07:10:22;100476.59;;;14.45;89.74
48053;BME280;33824;51.600;5.718;2023-04-22T07:12:47;100479.47;;;14.56;89.51
48053;BME280;33824;51.600;5.718;2023-04-22T07:15:13;100481.09;;;14.64;89.03
48053;BME280;33824;51.600;5.718;2023-04-22T07:17:38;100482.72;;;14.78;88.80
48053;BME280;33824;51.600;5.718;2023-04-22T07:20:04;100472.94;;;15.03;88.71
48053;BME280;33824;51.600;5.718;2023-04-22T07:22:30;100473.25;;;15.26;87.93
48053;BME280;33824;51.600;5.718;2023-04-22T07:24:56;100469.47;;;15.47;87.57
48053;BME280;33824;51.600;5.718;2023-04-22T07:27:21;100466.84;;;15.72;86.95
48053;BME280;33824;51.600;5.718;2023-04-22T07:29:47;100467.88;;;16.02;86.72
48053;BME280;33824;51.600;5.718;2023-04-22T07:32:12;100463.09;;;16.29;85.92
48053;BME280;33824;51.600;5.718;2023-04-22T07:34:38;100453.28;;;16.66;85.69
48053;BME280;33824;51.600;5.718;2023-04-22T07:37:03;100463.31;;;16.77;85.59
48053;BME280;33824;51.600;5.718;2023-04-22T07:39:31;100464.47;;;16.63;84.29
48053;BME280;33824;51.600;5.718;2023-04-22T07:41:59;100466.66;;;16.48;84.21
48053;BME280;33824;51.600;5.718;2023-04-22T07:44:25;100469.53;;;16.53;84.62
48053;BME280;33824;51.600;5.718;2023-04-22T07:46:50;100474.00;;;16.84;84.10
48053;BME280;33824;51.600;5.718;2023-04-22T07:49:16;100465.31;;;17.18;83.37
48053;BME280;33824;51.600;5.718;2023-04-22T07:51:44;100470.06;;;17.52;82.38
48053;BME280;33824;51.600;5.718;2023-04-22T07:54:10;100473.13;;;17.56;80.35
48053;BME280;33824;51.600;5.718;2023-04-22T07:56:36;100461.72;;;17.72;80.02
48053;BME280;33824;51.600;5.718;2023-04-22T07:59:02;100464.91;;;17.81;79.41
48053;BME280;33824;51.600;5.718;2023-04-22T08:01:27;100471.03;;;17.88;78.86
48053;BME280;33824;51.600;5.718;2023-04-22T08:03:53;100466.34;;;17.83;78.97
48053;BME280;33824;51.600;5.718;2023-04-22T08:06:18;100465.09;;;17.67;78.01
48053;BME280;33824;51.600;5.718;2023-04-22T08:08:44;100449.63;;;17.63;78.34
48053;BME280;33824;51.600;5.718;2023-04-22T08:11:09;100437.94;;;17.69;78.53
48053;BME280;33824;51.600;5.718;2023-04-22T08:13:35;100438.19;;;17.79;77.63
48053;BME280;33824;51.600;5.718;2023-04-22T08:16:00;100436.09;;;17.93;77.19
48053;BME280;33824;51.600;5.718;2023-04-22T08:18:28;100440.09;;;18.02;76.96
48053;BME280;33824;51.600;5.718;2023-04-22T08:20:54;100434.91;;;17.89;76.57
48053;BME280;33824;51.600;5.718;2023-04-22T08:23:20;100439.47;;;17.88;77.01
48053;BME280;33824;51.600;5.718;2023-04-22T08:25:46;100432.34;;;17.94;76.75
48053;BME280;33824;51.600;5.718;2023-04-22T08:28:12;100434.22;;;17.93;76.04
48053;BME280;33824;51.600;5.718;2023-04-22T08:30:37;100432.59;;;18.04;75.98
48053;BME280;33824;51.600;5.718;2023-04-22T08:33:03;100430.97;;;18.14;75.62
48053;BME280;33824;51.600;5.718;2023-04-22T08:35:29;100425.69;;;18.31;75.41
48053;BME280;33824;51.600;5.718;2023-04-22T08:37:54;100426.38;;;18.50;75.04
48053;BME280;33824;51.600;5.718;2023-04-22T08:40:20;100430.75;;;18.74;73.84
48053;BME280;33824;51.600;5.718;2023-04-22T08:42:46;100418.72;;;19.05;74.27
48053;BME280;33824;51.600;5.718;2023-04-22T08:45:12;100420.59;;;19.04;72.88
48053;BME280;33824;51.600;5.718;2023-04-22T08:47:39;100415.06;;;18.99;72.26
48053;BME280;33824;51.600;5.718;2023-04-22T08:50:05;100413.13;;;19.23;72.25
48053;BME280;33824;51.600;5.718;2023-04-22T08:52:33;100407.41;;;19.48;71.82
48053;BME280;33824;51.600;5.718;2023-04-22T08:54:58;100396.78;;;19.58;70.96
48053;BME280;33824;51.600;5.718;2023-04-22T08:57:24;100394.72;;;19.65;69.77
48053;BME280;33824;51.600;5.718;2023-04-22T08:59:50;100389.47;;;19.75;70.06
48053;BME280;33824;51.600;5.718;2023-04-22T09:02:19;100390.88;;;19.94;69.57
48053;BME280;33824;51.600;5.718;2023-04-22T09:04:51;100384.75;;;19.99;68.45
48053;BME280;33824;51.600;5.718;2023-04-22T09:07:22;100377.34;;;20.11;68.22
48053;BME280;33824;51.600;5.718;2023-04-22T09:09:48;100373.06;;;20.32;68.32
48053;BME280;33824;51.600;5.718;2023-04-22T09:12:14;100373.88;;;20.49;67.55
48053;BME280;33824;51.600;5.718;2023-04-22T09:14:42;100367.25;;;20.40;66.46
48053;BME280;33824;51.600;5.718;2023-04-22T09:17:08;100363.88;;;20.49;66.71
48053;BME280;33824;51.600;5.718;2023-04-22T09:19:33;100364.06;;;20.65;66.66
48053;BME280;33824;51.600;5.718;2023-04-22T09:21:59;100370.00;;;20.62;67.10
48053;BME280;33824;51.600;5.718;2023-04-22T09:24:25;100360.09;;;20.72;66.24
48053;BME280;33824;51.600;5.718;2023-04-22T09:26:54;100369.69;;;20.58;65.28
48053;BME280;33824;51.600;5.718;2023-04-22T09:29:19;100366.78;;;20.65;64.47
48053;BME280;33824;51.600;5.718;2023-04-22T09:31:49;100363.53;;;20.89;64.27
48053;BME280;33824;51.600;5.718;2023-04-22T09:34:14;100367.25;;;21.05;63.68
48053;BME280;33824;51.600;5.718;2023-04-22T09:36:42;100367.25;;;21.05;62.82
48053;BME280;33824;51.600;5.718;2023-04-22T09:39:08;100355.25;;;20.96;62.90
48053;BME280;33824;51.600;5.718;2023-04-22T09:41:38;100365.78;;;20.92;63.89
48053;BME280;33824;51.600;5.718;2023-04-22T09:44:08;100354.97;;;20.97;62.76
48053;BME280;33824;51.600;5.718;2023-04-22T09:46:35;100355.34;;;21.06;63.07
48053;BME280;33824;51.600;5.718;2023-04-22T09:49:01;100352.44;;;21.34;62.92
48053;BME280;33824;51.600;5.718;2023-04-22T09:51:27;100349.88;;;21.49;61.45
48053;BME280;33824;51.600;5.718;2023-04-22T09:54:00;100352.25;;;21.46;61.87
48053;BME280;33824;51.600;5.718;2023-04-22T09:56:51;100355.03;;;21.51;60.35
48053;BME280;33824;51.600;5.718;2023-04-22T09:59:27;100346.66;;;21.58;59.82
48053;BME280;33824;51.600;5.718;2023-04-22T10:01:58;100356.97;;;21.56;61.24
48053;BME280;33824;51.600;5.718;2023-04-22T10:04:25;100354.44;;;21.76;60.54
48053;BME280;33824;51.600;5.718;2023-04-22T10:06:52;100355.72;;;21.68;59.70
48053;BME280;33824;51.600;5.718;2023-04-22T10:09:19;100352.56;;;21.81;59.32
48053;BME280;33824;51.600;5.718;2023-04-22T10:11:46;100353.53;;;21.97;60.31
48053;BME280;33824;51.600;5.718;2023-04-22T10:14:11;100358.09;;;21.60;59.38
48053;BME280;33824;51.600;5.718;2023-04-22T10:16:39;100358.63;;;21.30;59.45
48053;BME280;33824;51.600;5.718;2023-04-22T10:19:10;100358.00;;;21.23;60.00
48053;BME280;33824;51.600;5.718;2023-04-22T10:21:40;100361.28;;;21.25;59.96
48053;BME280;33824;51.600;5.718;2023-04-22T10:24:14;100361.19;;;21.41;58.85
48053;BME280;33824;51.600;5.718;2023-04-22T10:26:42;100362.69;;;21.59;59.12
48053;BME280;33824;51.600;5.718;2023-04-22T10:29:12;100360.06;;;21.69;56.42
48053;BME280;33824;51.600;5.718;2023-04-22T10:31:42;100351.78;;;21.54;57.60
48053;BME280;33824;51.600;5.718;2023-04-22T10:34:12;100363.66;;;21.75;57.21
48053;BME280;33824;51.600;5.718;2023-04-22T10:37:12;100367.91;;;21.39;54.94
48053;BME280;33824;51.600;5.718;2023-04-22T10:39:39;100369.47;;;21.57;57.61
48053;BME280;33824;51.600;5.718;2023-04-22T10:42:10;100372.72;;;21.90;57.45
48053;BME280;33824;51.600;5.718;2023-04-22T10:44:59;100373.59;;;21.96;55.96
48053;BME280;33824;51.600;5.718;2023-04-22T10:47:36;100371.84;;;21.80;55.90
48053;BME280;33824;51.600;5.718;2023-04-22T10:50:22;100362.75;;;21.96;57.95
48053;BME280;33824;51.600;5.718;2023-04-22T10:52:50;100362.84;;;22.06;58.09
48053;BME280;33824;51.600;5.718;2023-04-22T10:55:17;100363.44;;;22.18;57.41
48053;BME280;33824;51.600;5.718;2023-04-22T10:57:45;100349.97;;;22.33;56.96
48053;BME280;33824;51.600;5.718;2023-04-22T11:00:27;100334.06;;;22.52;56.64
48053;BME280;33824;51.600;5.718;2023-04-22T11:05:25;100340.13;;;22.69;56.09
48053;BME280;33824;51.600;5.718;2023-04-22T11:08:01;100342.16;;;22.47;56.63
48053;BME280;33824;51.600;5.718;2023-04-22T11:10:37;100340.84;;;22.55;56.85
48053;BME280;33824;51.600;5.718;2023-04-22T11:13:10;100335.94;;;22.52;56.83
48053;BME280;33824;51.600;5.718;2023-04-22T11:15:38;100341.06;;;22.43;57.47
48053;BME280;33824;51.600;5.718;2023-04-22T11:18:08;100337.41;;;22.22;57.57
48053;BME280;33824;51.600;5.718;2023-04-22T11:20:35;100346.50;;;22.01;57.72
48053;BME280;33824;51.600;5.718;2023-04-22T11:23:01;100342.53;;;21.82;58.50
48053;BME280;33824;51.600;5.718;2023-04-22T11:25:27;100342.34;;;21.57;58.64
48053;BME280;33824;51.600;5.718;2023-04-22T11:27:53;100342.09;;;21.31;58.59
48053;BME280;33824;51.600;5.718;2023-04-22T11:30:25;100349.34;;;21.04;59.67
48053;BME280;33824;51.600;5.718;2023-04-22T11:32:53;100352.53;;;20.74;60.06
48053;BME280;33824;51.600;5.718;2023-04-22T11:35:21;100348.06;;;20.63;60.64
48053;BME280;33824;51.600;5.718;2023-04-22T11:37:49;100355.31;;;20.57;61.54
48053;BME280;33824;51.600;5.718;2023-04-22T11:40:18;100352.72;;;20.46;62.19
48053;BME280;33824;51.600;5.718;2023-04-22T11:42:44;100349.06;;;20.35;62.46
48053;BME280;33824;51.600;5.718;2023-04-22T11:45:10;100344.03;;;20.27;63.35
48053;BME280;33824;51.600;5.718;2023-04-22T11:47:38;100348.97;;;20.30;63.79
48053;BME280;33824;51.600;5.718;2023-04-22T11:50:06;100343.22;;;20.27;63.69
48053;BME280;33824;51.600;5.718;2023-04-22T11:52:44;100339.69;;;20.09;63.28
48053;BME280;33824;51.600;5.718;2023-04-22T11:55:22;100353.50;;;19.91;64.38
48053;BME280;33824;51.600;5.718;2023-04-22T11:57:54;100351.63;;;19.92;64.77
48053;BME280;33824;51.600;5.718;2023-04-22T12:00:21;100343.81;;;19.95;64.68
48053;BME280;33824;51.600;5.718;2023-04-22T12:03:07;100347.13;;;19.81;65.46
48053;BME280;33824;51.600;5.718;2023-04-22T12:05:52;100340.56;;;19.77;65.49
48053;BME280;33824;51.600;5.718;2023-04-22T12:08:20;100348.69;;;19.93;66.01
48053;BME280;33824;51.600;5.718;2023-04-22T12:10:49;100342.78;;;19.96;66.42
48053;BME280;33824;51.600;5.718;2023-04-22T12:13:18;100349.56;;;19.82;66.52
48053;BME280;33824;51.600;5.718;2023-04-22T12:15:44;100335.22;;;19.98;66.52
48053;BME280;33824;51.600;5.718;2023-04-22T12:18:10;100345.72;;;19.95;66.33
48053;BME280;33824;51.600;5.718;2023-04-22T12:20:38;100346.31;;;19.97;66.80
48053;BME280;33824;51.600;5.718;2023-04-22T12:23:04;100346.63;;;20.00;66.45
48053;BME280;33824;51.600;5.718;2023-04-22T12:25:30;100346.63;;;19.84;65.96
48053;BME280;33824;51.600;5.718;2023-04-22T12:27:58;100353.34;;;19.48;66.99
48053;BME280;33824;51.600;5.718;2023-04-22T12:30:24;100361.09;;;19.16;67.99
48053;BME280;33824;51.600;5.718;2023-04-22T12:32:51;100373.19;;;18.85;69.52
48053;BME280;33824;51.600;5.718;2023-04-22T12:35:16;100375.03;;;18.21;71.82
48053;BME280;33824;51.600;5.718;2023-04-22T12:37:42;100380.03;;;17.83;73.72
48053;BME280;33824;51.600;5.718;2023-04-22T12:40:07;100371.44;;;17.74;74.32
48053;BME280;33824;51.600;5.718;2023-04-22T12:42:34;100374.28;;;17.38;76.38
48053;BME280;33824;51.600;5.718;2023-04-22T12:45:00;100363.75;;;17.48;76.50
48053;BME280;33824;51.600;5.718;2023-04-22T12:47:26;100367.44;;;17.65;77.05
48053;BME280;33824;51.600;5.718;2023-04-22T12:49:51;100364.06;;;17.82;76.92
48053;BME280;33824;51.600;5.718;2023-04-22T12:52:17;100365.25;;;17.86;76.98
48053;BME280;33824;51.600;5.718;2023-04-22T12:54:42;100366.56;;;17.95;77.19
48053;BME280;33824;51.600;5.718;2023-04-22T12:57:08;100369.38;;;18.00;77.43